createdAt,value
2023-05-01T00:00:20.674Z,3.13
2023-05-01T00:02:54.554Z,3.27
2023-05-01T00:05:22.796Z,3.27
2023-05-01T00:07:50.658Z,2.30
2023-05-01T00:10:20.155Z,3.58
2023-05-01T00:12:50.587Z,3.10
2023-05-01T00:15:19.817Z,4.85
2023-05-01T00:17:47.653Z,2.83
2023-05-01T00:20:15.528Z,2.55
2023-05-01T00:22:43.341Z,2.85
2023-05-01T00:25:11.580Z,2.77
2023-05-01T00:27:43.677Z,3.95
2023-05-01T00:30:12.531Z,2.70
2023-05-01T00:32:41.809Z,4.28
2023-05-01T00:35:10.406Z,3.88
2023-05-01T00:37:38.525Z,3.47
2023-05-01T00:40:07.337Z,2.97
2023-05-01T00:42:39.526Z,3.70
2023-05-01T00:45:08.656Z,2.53
2023-05-01T00:47:37.802Z,4.18
2023-05-01T00:50:08.899Z,2.50
2023-05-01T00:52:37.102Z,3.03
2023-05-01T00:55:05.959Z,3.60
2023-05-01T00:57:34.396Z,4.70
2023-05-01T01:00:02.250Z,5.40
2023-05-01T01:02:30.203Z,7.93
2023-05-01T01:04:58.180Z,4.93
2023-05-01T01:07:38.208Z,4.73
2023-05-01T01:10:18.183Z,3.58
2023-05-01T01:12:55.817Z,4.37
2023-05-01T01:15:30.261Z,4.03
2023-05-01T01:18:07.438Z,3.93
2023-05-01T01:20:41.011Z,5.17
2023-05-01T01:23:34.661Z,3.90
2023-05-01T01:26:29.357Z,4.72
2023-05-01T01:29:13.493Z,5.38
2023-05-01T01:31:52.520Z,4.90
2023-05-01T01:34:27.821Z,5.10
2023-05-01T01:37:03.316Z,6.87
2023-05-01T01:39:39.135Z,8.20
2023-05-01T01:42:11.325Z,7.85
2023-05-01T01:44:42.582Z,10.35
2023-05-01T01:47:13.632Z,8.65
2023-05-01T01:49:47.880Z,10.55
2023-05-01T01:52:18.983Z,9.93
2023-05-01T01:54:52.124Z,12.68
2023-05-01T01:57:22.568Z,9.68
2023-05-01T01:59:52.340Z,6.75
2023-05-01T02:02:22.326Z,7.60
2023-05-01T02:04:53.575Z,8.40
2023-05-01T02:07:23.723Z,8.65
2023-05-01T02:09:53.980Z,8.40
2023-05-01T02:12:23.461Z,7.97
2023-05-01T02:14:53.339Z,6.47
2023-05-01T02:17:21.728Z,6.63
2023-05-01T02:19:53.279Z,5.50
2023-05-01T02:22:23.025Z,6.00
2023-05-01T02:24:51.361Z,7.20
2023-05-01T02:27:22.216Z,8.30
2023-05-01T02:29:51.895Z,6.67
2023-05-01T02:32:20.030Z,5.60
2023-05-01T02:34:48.171Z,3.85
2023-05-01T02:37:17.580Z,3.40
2023-05-01T02:39:46.914Z,3.03
2023-05-01T02:42:17.861Z,3.33
2023-05-01T02:44:50.063Z,3.43
2023-05-01T02:47:21.488Z,2.95
2023-05-01T02:49:52.269Z,3.33
2023-05-01T02:52:23.909Z,3.63
2023-05-01T02:55:01.394Z,3.20
2023-05-01T02:57:29.343Z,8.13
2023-05-01T02:59:57.580Z,3.10
2023-05-01T03:02:25.663Z,3.17
2023-05-01T03:04:53.505Z,3.53
2023-05-01T03:07:24.407Z,3.00
2023-05-01T03:09:52.992Z,5.07
2023-05-01T03:12:21.752Z,4.93
2023-05-01T03:14:49.626Z,3.25
2023-05-01T03:17:17.500Z,3.25
2023-05-01T03:19:45.400Z,4.55
2023-05-01T03:22:13.341Z,4.33
2023-05-01T03:24:42.647Z,4.77
2023-05-01T03:27:10.894Z,3.30
2023-05-01T03:29:38.944Z,4.93
2023-05-01T03:32:07.334Z,4.93
2023-05-01T03:34:35.388Z,4.85
2023-05-01T03:37:03.256Z,3.33
2023-05-01T03:39:31.211Z,3.35
2023-05-01T03:42:18.811Z,3.57
2023-05-01T03:44:47.067Z,5.32
2023-05-01T03:47:16.161Z,5.37
2023-05-01T03:49:44.565Z,3.08
2023-05-01T03:52:13.145Z,3.83
2023-05-01T03:54:41.128Z,3.63
2023-05-01T03:57:37.062Z,3.00
2023-05-01T04:00:07.157Z,7.30
2023-05-01T04:02:43.262Z,4.87
2023-05-01T04:05:15.147Z,3.77
2023-05-01T04:07:48.573Z,4.03
2023-05-01T04:10:17.189Z,4.97
2023-05-01T04:12:53.587Z,4.78
2023-05-01T04:15:22.593Z,3.87
2023-05-01T04:17:51.119Z,5.18
2023-05-01T04:20:20.239Z,4.13
2023-05-01T04:22:48.401Z,4.73
2023-05-01T04:25:16.277Z,3.50
2023-05-01T04:27:46.028Z,3.77
2023-05-01T04:30:17.026Z,3.57
2023-05-01T04:32:45.526Z,4.47
2023-05-01T04:35:13.767Z,5.30
2023-05-01T04:37:44.502Z,4.17
2023-05-01T04:40:13.700Z,6.33
2023-05-01T04:42:43.356Z,3.90
2023-05-01T04:45:16.188Z,2.90
2023-05-01T04:47:44.545Z,4.97
2023-05-01T04:50:12.686Z,5.00
2023-05-01T04:52:41.271Z,3.67
2023-05-01T04:55:10.712Z,3.97
2023-05-01T04:57:46.238Z,4.43
2023-05-01T05:00:16.158Z,3.30
2023-05-01T05:02:53.011Z,4.47
2023-05-01T05:05:20.872Z,3.37
2023-05-01T05:07:50.304Z,7.27
2023-05-01T05:10:38.397Z,3.27
2023-05-01T05:13:25.723Z,6.15
2023-05-01T05:16:04.180Z,4.13
2023-05-01T05:18:32.891Z,3.53
2023-05-01T05:21:04.614Z,5.40
2023-05-01T05:23:32.853Z,4.53
2023-05-01T05:26:01.752Z,3.93
2023-05-01T05:28:30.106Z,5.30
2023-05-01T05:30:58.562Z,4.97
2023-05-01T05:33:29.125Z,3.50
2023-05-01T05:35:59.129Z,3.70
2023-05-01T05:38:31.367Z,3.23
2023-05-01T05:41:00.866Z,3.50
2023-05-01T05:43:30.159Z,4.00
2023-05-01T05:45:58.990Z,3.07
2023-05-01T05:48:29.298Z,5.07
2023-05-01T05:50:57.564Z,4.33
2023-05-01T05:53:26.273Z,4.22
2023-05-01T05:55:55.093Z,5.23
2023-05-01T05:58:24.613Z,5.07
2023-05-01T06:00:53.251Z,3.77
2023-05-01T06:03:21.309Z,3.83
2023-05-01T06:05:52.155Z,4.83
2023-05-01T06:08:19.971Z,5.07
2023-05-01T06:10:48.826Z,6.88
2023-05-01T06:13:16.848Z,5.13
2023-05-01T06:15:47.533Z,3.53
2023-05-01T06:18:15.521Z,5.47
2023-05-01T06:20:43.468Z,5.93
2023-05-01T06:23:17.117Z,3.00
2023-05-01T06:25:57.291Z,3.28
2023-05-01T06:28:25.083Z,4.37
2023-05-01T06:30:52.985Z,3.47
2023-05-01T06:33:21.713Z,3.97
2023-05-01T06:36:00.687Z,2.87
2023-05-01T06:38:29.851Z,3.57
2023-05-01T06:40:57.653Z,3.27
2023-05-01T06:43:28.025Z,5.37
2023-05-01T06:45:55.875Z,2.83
2023-05-01T06:48:24.047Z,3.85
2023-05-01T06:50:51.899Z,3.67
2023-05-01T06:53:20.206Z,3.38
2023-05-01T06:55:49.355Z,6.15
2023-05-01T07:00:52.523Z,6.03
2023-05-01T07:03:20.536Z,5.35
2023-05-01T07:05:48.359Z,4.57
2023-05-01T07:08:16.117Z,5.00
2023-05-01T07:10:43.837Z,3.58
2023-05-01T07:13:13.093Z,5.30
2023-05-01T07:15:41.699Z,6.20
2023-05-01T07:18:12.774Z,6.53
2023-05-01T07:20:40.842Z,8.52
2023-05-01T07:23:09.757Z,4.40
2023-05-01T07:25:38.295Z,3.92
2023-05-01T07:28:07.979Z,6.35
2023-05-01T07:30:37.912Z,4.10
2023-05-01T07:33:06.608Z,4.05
2023-05-01T07:35:37.504Z,4.35
2023-05-01T07:38:05.559Z,3.30
2023-05-01T07:40:36.936Z,3.33
2023-05-01T07:43:11.060Z,3.10
2023-05-01T07:45:41.529Z,3.40
2023-05-01T07:48:09.516Z,3.05
2023-05-01T07:50:37.375Z,5.32
2023-05-01T07:53:05.217Z,4.97
2023-05-01T07:55:33.507Z,3.47
2023-05-01T07:58:01.213Z,3.42
2023-05-01T08:00:28.998Z,5.43
2023-05-01T08:02:58.214Z,7.03
2023-05-01T08:05:28.327Z,5.55
2023-05-01T08:07:58.542Z,4.90
2023-05-01T08:10:29.456Z,3.00
2023-05-01T08:12:57.218Z,2.90
2023-05-01T08:15:25.318Z,2.83
2023-05-01T08:17:53.096Z,4.70
2023-05-01T08:20:22.219Z,3.35
2023-05-01T08:22:49.965Z,4.88
2023-05-01T08:25:17.887Z,10.15
2023-05-01T08:27:45.763Z,10.18
2023-05-01T08:30:14.012Z,10.82
2023-05-01T08:32:41.850Z,6.78
2023-05-01T08:35:09.809Z,6.65
2023-05-01T08:37:39.010Z,4.68
2023-05-01T08:40:08.949Z,4.03
2023-05-01T08:42:37.258Z,2.90
2023-05-01T08:45:12.336Z,5.25
2023-05-01T08:47:42.860Z,3.50
2023-05-01T08:50:12.486Z,6.80
2023-05-01T08:52:43.521Z,4.28
2023-05-01T08:55:14.294Z,3.92
2023-05-01T08:57:45.700Z,3.80
2023-05-01T09:00:19.025Z,3.47
2023-05-01T09:02:48.897Z,2.88
2023-05-01T09:05:18.024Z,2.83
2023-05-01T09:07:48.823Z,5.07
2023-05-01T09:10:18.776Z,4.72
2023-05-01T09:12:59.251Z,4.32
2023-05-01T09:15:33.361Z,5.32
2023-05-01T09:18:04.712Z,3.83
2023-05-01T09:20:33.106Z,6.93
2023-05-01T09:23:02.270Z,3.30
2023-05-01T09:25:30.807Z,4.93
2023-05-01T09:27:58.506Z,3.25
2023-05-01T09:30:34.372Z,2.60
2023-05-01T09:33:06.527Z,2.67
2023-05-01T09:35:49.313Z,4.65
2023-05-01T09:38:20.821Z,9.25
2023-05-01T09:40:48.914Z,4.25
2023-05-01T09:43:26.033Z,3.08
2023-05-01T09:46:05.188Z,4.32
2023-05-01T09:48:35.390Z,5.13
2023-05-01T09:51:21.343Z,4.18
2023-05-01T09:53:51.351Z,4.95
2023-05-01T09:56:21.440Z,6.38
2023-05-01T09:58:51.881Z,4.35
2023-05-01T10:01:19.931Z,7.60
2023-05-01T10:03:56.180Z,4.70
2023-05-01T10:06:29.485Z,2.70
2023-05-01T10:08:58.806Z,3.95
2023-05-01T10:11:27.122Z,3.58
2023-05-01T10:14:12.968Z,2.60
2023-05-01T10:16:40.801Z,2.92
2023-05-01T10:19:09.573Z,2.70
2023-05-01T10:21:37.929Z,4.40
2023-05-01T10:24:09.839Z,5.28
2023-05-01T10:26:38.052Z,3.28
2023-05-01T10:29:06.090Z,6.07
2023-05-01T10:31:34.008Z,6.78
2023-05-01T10:34:02.757Z,1.88
2023-05-01T10:36:37.530Z,2.65
2023-05-01T10:39:07.086Z,2.22
2023-05-01T10:42:04.833Z,2.63
2023-05-01T10:44:34.859Z,3.88
2023-05-01T10:47:41.427Z,4.93
2023-05-01T10:50:10.426Z,3.00
2023-05-01T10:53:11.981Z,2.03
2023-05-01T10:55:43.536Z,2.58
2023-05-01T10:58:11.586Z,3.53
2023-05-01T11:00:39.359Z,5.80
2023-05-01T11:03:37.228Z,3.90
2023-05-01T11:06:09.228Z,1.80
2023-05-01T11:08:38.469Z,3.90
2023-05-01T11:11:43.266Z,3.70
2023-05-01T11:14:12.367Z,2.53
2023-05-01T11:16:48.810Z,4.40
2023-05-01T11:19:50.269Z,3.38
2023-05-01T11:22:19.374Z,2.72
2023-05-01T11:24:47.952Z,2.67
2023-05-01T11:27:16.354Z,2.25
2023-05-01T11:29:49.789Z,3.15
2023-05-01T11:32:26.847Z,2.38
2023-05-01T11:34:55.426Z,2.10
2023-05-01T11:37:41.960Z,2.55
2023-05-01T11:40:21.406Z,4.90
2023-05-01T11:42:49.562Z,2.58
2023-05-01T11:45:20.416Z,2.10
2023-05-01T11:47:49.291Z,2.00
2023-05-01T11:50:17.327Z,2.42
2023-05-01T11:52:46.789Z,2.42
2023-05-01T11:55:14.526Z,2.40
2023-05-01T11:57:49.590Z,2.50
2023-05-01T12:00:28.296Z,4.78
2023-05-01T12:02:58.562Z,5.38
2023-05-01T12:05:26.901Z,2.63
2023-05-01T12:08:07.969Z,3.63
2023-05-01T12:10:36.953Z,2.92
2023-05-01T12:13:05.456Z,4.03
2023-05-01T12:15:37.133Z,3.75
2023-05-01T12:18:05.639Z,4.07
2023-05-01T12:20:38.505Z,3.60
2023-05-01T12:23:07.504Z,1.95
2023-05-01T12:25:36.003Z,1.60
2023-05-01T12:28:05.154Z,2.58
2023-05-01T12:30:34.286Z,2.95
2023-05-01T12:33:10.182Z,2.25
2023-05-01T12:35:38.470Z,1.48
2023-05-01T12:38:13.972Z,1.75
2023-05-01T12:40:50.951Z,0.95
2023-05-01T12:43:19.244Z,2.17
2023-05-01T12:45:52.037Z,1.40
2023-05-01T12:48:21.032Z,2.25
2023-05-01T12:50:54.874Z,1.98
2023-05-01T12:53:23.959Z,1.80
2023-05-01T12:55:54.274Z,4.07
2023-05-01T12:58:22.326Z,2.65
2023-05-01T13:00:53.018Z,1.52
2023-05-01T13:03:25.220Z,1.70
2023-05-01T13:05:56.184Z,1.50
2023-05-01T13:08:28.334Z,1.15
2023-05-01T13:11:04.424Z,1.30
2023-05-01T13:13:35.213Z,1.10
2023-05-01T13:16:12.482Z,1.30
2023-05-01T13:18:45.399Z,5.85
2023-05-01T13:21:16.165Z,3.63
2023-05-01T13:23:53.998Z,1.23
2023-05-01T13:26:27.321Z,1.40
2023-05-01T13:28:55.600Z,0.85
2023-05-01T13:31:24.743Z,0.90
2023-05-01T13:33:54.261Z,1.02
2023-05-01T13:36:27.069Z,0.88
2023-05-01T13:39:21.344Z,2.38
2023-05-01T13:41:50.154Z,1.20
2023-05-01T13:44:45.992Z,1.10
2023-05-01T13:47:17.501Z,1.48
2023-05-01T13:49:46.732Z,1.58
2023-05-01T13:52:17.499Z,2.75
2023-05-01T13:54:46.154Z,2.50
2023-05-01T13:57:14.465Z,1.95
2023-05-01T13:59:59.355Z,2.95
2023-05-01T14:02:30.356Z,2.20
2023-05-01T14:05:00.747Z,2.05
2023-05-01T14:07:28.984Z,5.13
2023-05-01T14:09:59.402Z,4.47
2023-05-01T14:12:29.159Z,2.50
2023-05-01T14:14:57.435Z,1.67
2023-05-01T14:17:50.559Z,4.65
2023-05-01T14:20:18.602Z,3.70
2023-05-01T14:22:47.908Z,3.05
2023-05-01T14:25:23.452Z,4.15
2023-05-01T14:27:51.407Z,2.40
2023-05-01T14:30:28.861Z,4.45
2023-05-01T14:32:58.012Z,5.32
2023-05-01T14:35:28.968Z,3.65
2023-05-01T14:37:56.856Z,5.20
2023-05-01T14:40:28.119Z,3.90
2023-05-01T14:42:58.493Z,9.25
2023-05-01T14:45:26.284Z,7.95
2023-05-01T14:47:54.171Z,26.25
2023-05-01T14:50:24.710Z,18.92
2023-05-01T14:52:56.734Z,35.72
2023-05-01T14:55:28.386Z,22.50
2023-05-01T14:57:56.770Z,14.73
2023-05-01T15:00:24.963Z,13.73
2023-05-01T15:02:52.906Z,9.10
2023-05-01T15:05:20.811Z,5.32
2023-05-01T15:07:49.988Z,8.55
2023-05-01T15:10:17.860Z,7.30
2023-05-01T15:12:45.733Z,6.85
2023-05-01T15:15:13.526Z,6.32
2023-05-01T15:17:44.614Z,6.32
2023-05-01T15:20:12.996Z,12.45
2023-05-01T15:22:41.131Z,19.27
2023-05-01T15:25:11.801Z,7.35
2023-05-01T15:27:39.683Z,8.30
2023-05-01T15:30:13.237Z,7.22
2023-05-01T15:32:41.152Z,7.32
2023-05-01T15:35:09.524Z,6.68
2023-05-01T15:37:37.429Z,7.57
2023-05-01T15:40:06.481Z,5.70
2023-05-01T15:42:35.759Z,6.25
2023-05-01T15:45:04.277Z,6.63
2023-05-01T15:47:34.859Z,6.07
2023-05-01T15:50:02.747Z,6.10
2023-05-01T15:52:30.671Z,5.00
2023-05-01T15:54:58.471Z,5.63
2023-05-01T15:57:26.358Z,5.50
2023-05-01T15:59:56.009Z,5.70
2023-05-01T16:02:24.233Z,5.65
2023-05-01T16:04:52.716Z,6.20
2023-05-01T16:07:21.693Z,6.82
2023-05-01T16:09:49.420Z,11.57
2023-05-01T16:12:17.191Z,8.75
2023-05-01T16:14:45.077Z,9.52
2023-05-01T16:17:14.523Z,8.50
2023-05-01T16:19:42.548Z,7.50
2023-05-01T16:22:14.893Z,7.65
2023-05-01T16:24:43.008Z,6.55
2023-05-01T16:27:13.123Z,5.82
2023-05-01T16:29:43.721Z,6.25
2023-05-01T16:32:12.055Z,7.18
2023-05-01T16:34:41.377Z,6.03
2023-05-01T16:37:09.092Z,5.40
2023-05-01T16:39:38.459Z,6.03
2023-05-01T16:45:08.571Z,6.07
2023-05-01T16:47:36.960Z,5.25
2023-05-01T16:50:12.358Z,6.28
2023-05-01T16:52:40.498Z,7.30
2023-05-01T16:55:09.973Z,6.60
2023-05-01T16:57:37.836Z,5.97
2023-05-01T17:00:11.654Z,5.77
2023-05-01T17:02:39.910Z,6.15
2023-05-01T17:05:08.591Z,7.50
2023-05-01T17:07:36.445Z,6.75
2023-05-01T17:10:04.454Z,6.60
2023-05-01T17:12:32.165Z,6.47
2023-05-01T17:15:00.028Z,7.30
2023-05-01T17:17:29.151Z,7.30
2023-05-01T17:19:57.304Z,5.35
2023-05-01T17:22:26.718Z,5.65
2023-05-01T17:24:56.311Z,5.10
2023-05-01T17:27:24.152Z,4.85
2023-05-01T17:29:52.207Z,5.10
2023-05-01T17:32:33.055Z,4.57
2023-05-01T17:35:07.104Z,5.32
2023-05-01T17:37:34.994Z,5.68
2023-05-01T17:40:04.023Z,5.07
2023-05-01T17:42:32.191Z,7.25
2023-05-01T17:44:59.983Z,4.50
2023-05-01T17:47:28.203Z,5.43
2023-05-01T17:49:56.173Z,5.65
2023-05-01T17:52:25.442Z,5.28
2023-05-01T17:54:53.315Z,3.97
2023-05-01T17:57:21.078Z,4.80
2023-05-01T17:59:51.207Z,4.03
2023-05-01T18:02:19.123Z,4.28
2023-05-01T18:04:49.816Z,4.13
2023-05-01T18:07:17.811Z,4.35
2023-05-01T18:09:46.957Z,4.60
2023-05-01T18:12:14.679Z,4.10
2023-05-01T18:14:42.389Z,4.70
2023-05-01T18:17:10.261Z,4.30
2023-05-01T18:19:38.020Z,5.40
2023-05-01T18:22:13.561Z,4.50
2023-05-01T18:24:42.339Z,4.82
2023-05-01T18:27:11.541Z,4.68
2023-05-01T18:29:39.301Z,4.85
2023-05-01T18:32:09.337Z,5.13
2023-05-01T18:34:38.351Z,5.68
2023-05-01T18:37:06.599Z,5.60
2023-05-01T18:39:34.320Z,6.43
2023-05-01T18:42:03.593Z,5.97
2023-05-01T18:44:32.836Z,6.22
2023-05-01T18:47:00.729Z,7.95
2023-05-01T18:49:28.488Z,5.93
2023-05-01T18:51:56.325Z,5.72
2023-05-01T18:54:24.126Z,6.20
2023-05-01T18:56:53.328Z,6.20
2023-05-01T18:59:22.101Z,6.18
2023-05-01T19:01:51.480Z,6.60
2023-05-01T19:04:22.475Z,6.72
2023-05-01T19:06:50.514Z,7.07
2023-05-01T19:09:18.675Z,7.35
2023-05-01T19:11:46.573Z,6.90
2023-05-01T19:14:14.567Z,6.40
2023-05-01T19:16:42.781Z,7.97
2023-05-01T19:19:12.139Z,6.77
2023-05-01T19:21:39.886Z,7.10
2023-05-01T19:24:08.455Z,7.00
2023-05-01T19:26:36.644Z,7.35
2023-05-01T19:29:04.749Z,7.43
2023-05-01T19:31:33.161Z,7.18
2023-05-01T19:34:01.293Z,8.15
2023-05-01T19:36:31.888Z,7.40
2023-05-01T19:38:59.704Z,7.03
2023-05-01T19:41:27.447Z,7.57
2023-05-01T19:43:55.204Z,8.20
2023-05-01T19:46:22.950Z,8.18
2023-05-01T19:48:51.838Z,7.40
2023-05-01T19:51:19.570Z,7.90
2023-05-01T19:53:48.711Z,7.47
2023-05-01T19:56:16.423Z,7.70
2023-05-01T19:58:44.174Z,8.30
2023-05-01T20:01:13.174Z,8.98
2023-05-01T20:03:40.986Z,9.65
2023-05-01T20:06:09.052Z,7.78
2023-05-01T20:08:37.923Z,8.48
2023-05-01T20:11:07.342Z,8.30
2023-05-01T20:13:35.213Z,8.45
2023-05-01T20:16:02.921Z,8.65
2023-05-01T20:18:30.748Z,8.83
2023-05-01T20:20:58.464Z,10.02
2023-05-01T20:23:26.185Z,8.23
2023-05-01T20:25:53.866Z,9.13
2023-05-01T20:28:23.478Z,9.10
2023-05-01T20:30:51.484Z,9.13
2023-05-01T20:33:19.405Z,9.27
2023-05-01T20:35:48.164Z,9.40
2023-05-01T20:38:15.903Z,12.63
2023-05-01T20:40:43.792Z,9.30
2023-05-01T20:43:11.531Z,10.20
2023-05-01T20:45:40.627Z,8.77
2023-05-01T20:48:08.513Z,9.90
2023-05-01T20:50:36.449Z,9.10
2023-05-01T20:53:04.241Z,9.30
2023-05-01T20:55:32.023Z,9.73
2023-05-01T20:57:59.852Z,8.63
2023-05-01T21:00:27.779Z,9.93
2023-05-01T21:02:58.819Z,10.97
2023-05-01T21:05:26.725Z,9.98
2023-05-01T21:07:54.602Z,10.03
2023-05-01T21:10:22.652Z,10.10
2023-05-01T21:12:51.018Z,10.13
2023-05-01T21:15:18.819Z,10.40
2023-05-01T21:17:46.831Z,9.90
2023-05-01T21:20:18.359Z,10.50
2023-05-01T21:22:48.026Z,9.90
2023-05-01T21:25:17.077Z,9.90
2023-05-01T21:27:44.801Z,10.25
2023-05-01T21:30:16.863Z,9.88
2023-05-01T21:32:44.710Z,10.10
2023-05-01T21:35:16.704Z,10.57
2023-05-01T21:37:46.629Z,10.73
2023-05-01T21:40:15.310Z,10.97
2023-05-01T21:42:43.012Z,12.40
2023-05-01T21:45:12.925Z,11.97
2023-05-01T21:47:42.331Z,12.23
2023-05-01T21:50:12.938Z,12.83
2023-05-01T21:52:41.093Z,13.00
2023-05-01T21:55:12.236Z,12.80
2023-05-01T21:57:40.637Z,13.55
2023-05-01T22:00:10.220Z,13.25
2023-05-01T22:02:43.039Z,14.00
2023-05-01T22:05:11.935Z,16.13
2023-05-01T22:07:40.994Z,14.02
2023-05-01T22:10:12.328Z,13.60
2023-05-01T22:12:40.508Z,14.67
2023-05-01T22:15:09.214Z,15.20
2023-05-01T22:17:37.052Z,13.70
2023-05-01T22:20:07.099Z,14.47
2023-05-01T22:22:35.138Z,14.67
2023-05-01T22:25:03.861Z,14.27
2023-05-01T22:27:33.480Z,16.37
2023-05-01T22:30:01.707Z,15.50
2023-05-01T22:32:30.046Z,16.63
2023-05-01T22:34:57.844Z,16.20
2023-05-01T22:37:26.393Z,16.23
2023-05-01T22:39:54.457Z,16.90
2023-05-01T22:42:23.076Z,17.27
2023-05-01T22:44:52.521Z,18.30
2023-05-01T22:47:20.934Z,20.27
2023-05-01T22:49:49.314Z,18.00
2023-05-01T22:52:17.495Z,20.17
2023-05-01T22:54:45.381Z,21.40
2023-05-01T22:57:13.806Z,19.77
2023-05-01T22:59:41.623Z,21.03
2023-05-01T23:02:16.182Z,20.83
2023-05-01T23:04:44.205Z,20.30
2023-05-01T23:07:14.026Z,21.77
2023-05-01T23:09:41.812Z,20.97
2023-05-01T23:12:17.771Z,21.23
2023-05-01T23:14:47.287Z,21.63
2023-05-01T23:17:17.283Z,23.33
2023-05-01T23:19:46.808Z,22.97
2023-05-01T23:22:14.702Z,23.20
2023-05-01T23:24:44.525Z,22.00
2023-05-01T23:27:13.391Z,22.38
2023-05-01T23:29:41.433Z,23.70
2023-05-01T23:32:11.631Z,23.40
2023-05-01T23:34:43.264Z,23.43
2023-05-01T23:37:11.048Z,24.47
2023-05-01T23:39:38.737Z,24.10
2023-05-01T23:42:07.030Z,23.20
2023-05-01T23:44:34.789Z,24.87
2023-05-01T23:47:02.829Z,23.97
2023-05-01T23:49:30.601Z,26.47
2023-05-01T23:51:59.759Z,26.23
2023-05-01T23:54:27.514Z,24.73
2023-05-01T23:56:55.409Z,25.40
2023-05-01T23:59:23.154Z,25.73
